Terminal Aerodrome Forecast
Issued by NWS Pocatello, ID

Home | Current Version | Previous Version | Text Only | Print | Product List | Glossary On
Versions: 1 2 3 4 5 6 7 8 9 10 11 12
256
FTUS45 KPIH 140528
TAFBYI
TAF
KBYI 140528Z 1406/1506 25010KT P6SM VCSH SCT040 BKN100
     FM140900 23012KT P6SM -RA BKN025 OVC040
     FM141200 25019G29KT P6SM -SHRA SCT025 OVC040
     FM142200 26020G30KT P6SM VCSH SCT030 BKN050=

USA.gov is the U.S. government's official web portal to all federal, state and local government web resources and services.